Main page
METAR-TAF:

METAR-TAF

Airports :

Ruben Berta International Airport

Uruguaiana, Rio Grande do Sul, Brazil

latitude: 29-47S, longitude: 057-02W, elevation: 74 m

METAR: missing

Time: 09:06 (12:06 UTC)

Forecast

The report was made 3 hours and 6 minutes ago, at 09:00 UTC
Forecast valid from 12 at 12 UTC to 12 at 24 UTC
Wind 5 kt from the East/Southeast
Visibility 10 km or more
no clouds below 1500 m and no cumulonimbus
Becoming
from 12 at 13 UTC to 12 at 15 UTC
Wind 8 kt from the North/Northeast

TAF: SBUG 120900Z 1212/1224 12005KT CAVOK TN11/1212Z TX21/1217Z BECMG 1213/1215 03008KT RMK PDY

Weather observations and forecasts of more than 4000 airports (METAR and TAF reports).

The available stations are represented by yellow and red dots on the map.

Hover mouse over dot to see the name of the station.

Then click to see weather observations and forecasts.

To change the map : click on the green buttons with a black cross to zoom in, on the green button with a dash to zoom out, or on the green arrows for adjacent maps.


METAR-TAF: